Time;durP1;ratioP1;P1;durP2;ratioP2;P2;SDS_P1;SDS_P2;PMS_P1;PMS_P2;Temp;Humidity;BMP_temperature;BMP_pressure;BME280_temperature;BME280_humidity;BME280_pressure;Samples;Min_cycle;Max_cycle;Signal;HPM_P1;HPM_P2
2022/01/28 00:00:41;;;;;;;9.48;3.25;;;5.40;95.30;;;5.50;66.18;100798.19;4993419;28;20183;-70
2022/01/28 00:03:11;;;;;;;8.75;2.70;;;5.50;95.00;;;5.52;65.62;100790.78;5010367;22;20672;-71
2022/01/28 00:05:40;;;;;;;13.95;2.72;;;5.50;92.80;;;5.55;65.78;100813.78;5035326;28;20263;-72
2022/01/28 00:08:11;;;;;;;11.88;3.78;;;5.50;92.80;;;5.53;65.62;100791.63;5037824;28;20243;-71
2022/01/28 00:10:41;;;;;;;15.88;3.60;;;5.50;92.20;;;5.58;65.57;100800.00;5035741;28;20212;-73
2022/01/28 00:13:20;;;;;;;20.67;3.97;;;5.50;92.90;;;5.53;65.57;100803.19;5031547;28;20710;-70
2022/01/28 00:16:08;;;;;;;15.80;3.33;;;5.50;91.20;;;5.58;65.13;100810.72;5031365;28;20224;-70
2022/01/28 00:38:08;;;;;;;11.85;3.03;;;5.50;93.00;;;5.57;65.58;100817.94;5035292;28;20205;-70
2022/01/28 00:40:38;;;;;;;12.48;4.15;;;5.60;91.30;;;5.56;65.56;100812.78;5035348;28;20180;-72
2022/01/28 00:43:07;;;;;;;16.05;3.80;;;5.60;91.50;;;5.52;66.02;100809.56;5034274;28;20185;-71
2022/01/28 00:45:36;;;;;;;12.75;3.35;;;5.50;92.10;;;5.51;66.08;100815.97;5033854;28;20212;-70
2022/01/28 00:48:05;;;;;;;15.77;5.18;;;5.50;93.00;;;5.53;66.11;100834.56;5033725;28;20316;-70
2022/01/28 00:50:33;;;;;;;15.63;4.10;;;5.50;94.00;;;5.55;65.73;100829.88;5034914;28;20680;-72
2022/01/28 00:53:02;;;;;;;11.88;3.05;;;5.50;93.10;;;5.51;66.01;100848.19;5034281;28;20193;-71
2022/01/28 00:55:30;;;;;;;13.63;3.60;;;5.50;93.00;;;5.53;65.98;100851.53;5033818;28;20287;-71
2022/01/28 00:58:00;;;;;;;17.77;3.97;;;5.50;93.00;;;5.47;65.90;100852.19;5034551;28;20269;-72
2022/01/28 01:00:29;;;;;;;16.35;4.28;;;5.50;93.40;;;5.52;66.49;100849.00;5033121;28;20197;-71
2022/01/28 01:02:58;;;;;;;10.48;3.92;;;5.50;95.00;;;5.51;66.27;100860.75;5033193;28;20428;-70
2022/01/28 01:05:30;;;;;;;14.00;4.82;;;5.50;94.30;;;5.52;66.31;100855.19;5034596;28;20166;-70
2022/01/28 01:07:59;;;;;;;11.13;3.85;;;5.50;94.20;;;5.50;66.23;100857.25;5035230;28;20259;-70
2022/01/28 01:10:29;;;;;;;11.25;3.28;;;5.50;94.50;;;5.46;66.38;100858.59;5034547;28;20181;-71
2022/01/28 01:12:58;;;;;;;13.15;3.85;;;5.40;94.90;;;5.54;66.31;100874.69;5033848;28;20231;-72
2022/01/28 01:15:33;;;;;;;15.60;4.80;;;5.50;95.10;;;5.48;66.33;100878.03;5034587;28;20232;-70
2022/01/28 01:18:08;;;;;;;10.00;3.00;;;5.50;93.80;;;5.46;66.13;100863.97;5034499;28;20258;-71
2022/01/28 01:23:50;;;;;;;18.73;4.28;;;5.50;94.40;;;5.50;66.16;100889.44;5030473;28;20208;-69
2022/01/28 01:26:21;;;;;;;13.60;4.57;;;5.50;94.10;;;5.53;66.08;100899.84;5033454;28;20715;-72
2022/01/28 01:28:52;;;;;;;14.10;3.90;;;5.50;94.40;;;5.49;66.04;100922.66;5034685;28;20227;-70
2022/01/28 01:35:11;;;;;;;17.92;3.88;;;5.50;93.30;;;5.49;65.81;100914.59;4965146;28;20242;-74
2022/01/28 01:37:39;;;;;;;11.77;5.43;;;5.50;93.70;;;5.42;65.99;100916.28;4956924;28;20756;-72
2022/01/28 01:40:09;;;;;;;22.02;3.45;;;5.40;93.00;;;5.47;65.64;100919.28;4957320;28;20183;-73
2022/01/28 01:42:46;;;;;;;20.80;4.85;;;5.40;91.30;;;5.44;65.39;100933.06;4956933;28;20187;-74
2022/01/28 01:53:35;;;;;;;19.90;4.28;;;5.40;86.20;;;5.51;64.93;100927.88;4973367;28;20179;-72
2022/01/28 01:56:04;;;;;;;13.65;4.25;;;5.40;87.10;;;5.48;64.94;100934.38;4956736;28;20207;-73
2022/01/28 01:58:35;;;;;;;14.07;5.03;;;5.50;85.10;;;5.46;64.61;100941.78;4972931;28;20701;-73
2022/01/28 02:01:04;;;;;;;16.30;4.45;;;5.40;82.80;;;5.49;65.02;100946.81;4956759;28;20218;-72
2022/01/28 02:03:34;;;;;;;14.75;3.17;;;5.40;86.80;;;5.45;65.44;100956.22;4972728;28;20239;-73
2022/01/28 02:06:03;;;;;;;15.13;3.63;;;5.40;90.80;;;5.36;65.83;100953.69;4956724;28;20620;-73
2022/01/28 02:08:36;;;;;;;18.52;3.83;;;5.40;90.90;;;5.37;66.76;100963.44;4957044;28;20625;-74
2022/01/28 02:11:08;;;;;;;13.35;3.65;;;5.40;93.70;;;5.33;65.75;100954.00;4972684;28;20179;-72
2022/01/28 02:13:42;;;;;;;19.05;2.67;;;5.30;92.50;;;5.32;66.19;100960.41;4973622;28;20198;-72
2022/01/28 02:16:16;;;;;;;19.92;3.95;;;5.30;92.50;;;5.35;65.48;100960.91;4974250;28;20270;-72
2022/01/28 02:18:47;;;;;;;14.05;3.97;;;5.30;91.60;;;5.33;66.05;100967.41;4979000;28;20251;-74
2022/01/28 02:21:18;;;;;;;15.98;3.85;;;5.30;91.50;;;5.29;65.98;100991.06;4966296;28;20192;-72
2022/01/28 02:23:51;;;;;;;16.00;3.30;;;5.30;91.30;;;5.35;65.67;100977.00;4963162;28;20207;-72
2022/01/28 02:26:19;;;;;;;15.55;4.05;;;5.30;90.60;;;5.36;65.25;100992.09;4978695;28;20473;-73
2022/01/28 02:28:52;;;;;;;12.65;3.35;;;5.30;90.40;;;5.35;65.47;101000.31;4977901;28;20257;-74
2022/01/28 02:49:56;;;;;;;17.80;6.30;;;5.30;92.40;;;5.27;66.16;101035.19;4953314;29;20275;-72
2022/01/28 02:52:34;;;;;;;16.73;3.42;;;5.30;94.00;;;5.29;66.01;101031.31;4964738;28;20750;-74
2022/01/28 02:55:08;;;;;;;13.40;4.22;;;5.30;93.70;;;5.25;66.64;101038.88;5019874;28;20205;-72
2022/01/28 02:57:39;;;;;;;9.43;5.07;;;5.20;94.90;;;5.17;67.18;101038.03;5031438;28;20675;-71
2022/01/28 03:00:09;;;;;;;14.55;3.97;;;5.20;96.90;;;5.02;67.81;101061.94;5031471;28;20667;-72
2022/01/28 03:02:37;;;;;;;15.82;4.10;;;5.10;97.60;;;5.04;67.79;101076.00;5033090;28;20185;-71
2022/01/28 03:05:31;;;;;;;14.23;4.40;;;5.00;98.60;;;5.04;67.70;101054.56;5032319;28;20602;-71
2022/01/28 03:13:57;;;;;;;15.68;3.95;;;5.10;98.40;;;5.12;67.24;101070.69;5033469;28;20200;-71
2022/01/28 03:16:27;;;;;;;8.95;3.25;;;5.10;97.80;;;5.08;66.67;101068.50;5032842;28;20207;-71
2022/01/28 03:18:59;;;;;;;12.75;4.82;;;5.10;95.80;;;5.14;66.72;101079.41;5031689;28;20237;-72
2022/01/28 03:21:42;;;;;;;22.17;6.25;;;5.10;95.40;;;5.17;66.72;101078.25;5031658;28;20583;-73
2022/01/28 03:24:12;;;;;;;21.63;4.32;;;5.10;95.20;;;5.12;66.61;101072.53;5033305;28;20531;-72
2022/01/28 03:26:41;;;;;;;14.98;4.85;;;5.10;95.40;;;5.18;66.56;101085.31;5048157;28;20197;-73
2022/01/28 03:29:09;;;;;;;15.57;4.45;;;5.10;95.30;;;5.13;67.53;101076.91;5031436;28;20271;-72
2022/01/28 03:31:40;;;;;;;14.48;4.45;;;5.10;97.30;;;5.16;66.89;101090.00;5031687;28;20239;-72
2022/01/28 03:34:09;;;;;;;15.52;4.18;;;5.10;96.20;;;5.13;66.71;101090.31;5033515;28;20204;-71
2022/01/28 03:36:39;;;;;;;14.52;3.33;;;5.10;95.80;;;5.18;66.55;101096.03;5033647;28;20205;-73
2022/01/28 03:39:09;;;;;;;16.52;4.68;;;5.10;94.60;;;5.18;66.14;101115.63;5032694;28;20566;-72
2022/01/28 03:43:08;;;;;;;16.75;5.22;;;5.20;92.80;;;5.21;66.01;101101.06;5032777;28;20223;-72
2022/01/28 04:06:20;;;;;;;17.63;6.57;;;5.20;89.80;;;5.22;65.74;101149.22;4942221;29;20212;-72
2022/01/28 04:11:31;;;;;;;11.02;2.85;;;5.20;85.80;;;5.27;65.14;101154.09;4959145;28;20187;-73
2022/01/28 04:14:09;;;;;;;18.30;5.00;;;5.30;87.00;;;5.28;65.20;101171.84;4976491;28;20948;-72
2022/01/28 04:19:24;;;;;;;17.65;3.88;;;5.30;79.10;;;5.33;64.47;101177.56;4974655;28;20215;-73
2022/01/28 04:21:54;;;;;;;21.42;4.10;;;5.30;79.00;;;5.26;64.28;101176.56;4958803;28;20203;-73
2022/01/28 04:24:23;;;;;;;11.98;4.38;;;5.30;74.10;;;5.33;63.77;101177.56;4975081;28;20266;-73
2022/01/28 04:26:51;;;;;;;13.73;4.45;;;5.30;73.20;;;5.30;64.34;101177.91;4976446;28;20542;-74
2022/01/28 04:35:11;;;;;;;15.05;4.15;;;5.30;68.00;;;5.32;63.43;101192.03;4957690;28;20191;-73
2022/01/28 04:37:53;;;;;;;12.98;4.45;;;5.30;65.20;;;5.33;62.93;101203.56;4954609;28;20231;-72
2022/01/28 04:40:28;;;;;;;16.05;4.88;;;5.30;60.00;;;5.33;62.83;101200.88;4987134;28;20198;-72
2022/01/28 04:43:11;;;;;;;7.43;2.65;;;5.30;59.10;;;5.34;62.89;101195.38;5013574;28;20197;-74
2022/01/28 04:45:48;;;;;;;11.65;3.38;;;5.30;56.70;;;5.33;62.97;101200.88;4996686;28;20197;-73
2022/01/28 04:48:27;;;;;;;15.70;3.63;;;5.30;56.00;;;5.39;62.87;101214.50;5012968;28;20622;-73
2022/01/28 04:51:10;;;;;;;14.88;4.28;;;5.40;57.40;;;5.38;62.50;101210.13;5013336;28;20178;-72
2022/01/28 04:53:51;;;;;;;13.60;5.40;;;5.40;55.00;;;5.33;62.36;101215.16;4996619;28;20198;-71
2022/01/28 04:56:34;;;;;;;13.57;2.90;;;5.40;53.50;;;5.35;62.75;101217.69;5012721;28;20196;-72
2022/01/28 04:59:22;;;;;;;12.57;3.90;;;5.40;53.90;;;5.37;62.29;101227.28;4996688;28;20245;-73
2022/01/28 05:14:27;;;;;;;14.23;3.33;;;5.40;51.90;;;5.38;62.43;101255.78;4954456;28;20602;-70
2022/01/28 05:25:44;;;;;;;16.52;3.92;;;5.40;52.60;;;5.34;62.54;101293.81;4989027;23;20247;-71
2022/01/28 05:28:17;;;;;;;15.55;4.43;;;5.40;52.30;;;5.38;62.41;101285.28;4976911;28;20207;-71
2022/01/28 05:30:46;;;;;;;7.82;3.40;;;5.40;50.90;;;5.40;62.16;101285.97;4976978;28;20242;-70
2022/01/28 05:33:15;;;;;;;12.95;3.85;;;5.40;51.20;;;5.37;62.58;101309.63;4977053;28;20195;-70
2022/01/28 05:35:43;;;;;;;12.57;3.25;;;5.40;51.30;;;5.38;62.88;101304.06;4975963;28;20187;-70
2022/01/28 05:38:12;;;;;;;11.57;3.20;;;5.40;53.50;;;5.38;62.17;101313.97;4975521;28;20274;-70
2022/01/28 05:40:40;;;;;;;15.55;4.18;;;5.40;51.50;;;5.41;62.50;101314.50;4975442;28;20180;-70
2022/01/28 05:43:08;;;;;;;13.98;4.40;;;5.40;52.20;;;5.33;62.37;101311.75;4976093;28;20187;-70
2022/01/28 05:45:42;;;;;;;16.70;4.28;;;5.30;51.40;;;5.38;62.25;101312.13;4975647;28;20180;-70
2022/01/28 05:48:12;;;;;;;20.42;5.60;;;5.40;49.90;;;5.38;62.17;101319.34;4976216;28;20207;-69
2022/01/28 05:50:40;;;;;;;10.90;4.15;;;5.40;49.80;;;5.36;62.06;101334.78;4977956;28;20215;-71
2022/01/28 05:53:08;;;;;;;22.30;4.78;;;5.40;49.20;;;5.41;62.33;101330.63;4980962;28;20187;-72
2022/01/28 05:55:37;;;;;;;15.20;3.88;;;5.40;49.70;;;5.40;62.33;101338.81;4981188;28;20234;-69
2022/01/28 05:58:06;;;;;;;12.10;3.83;;;5.40;49.90;;;5.38;62.22;101336.28;4979147;28;20254;-71
2022/01/28 06:00:35;;;;;;;14.45;5.07;;;5.30;50.40;;;5.41;62.29;101344.03;4975479;28;20172;-70
2022/01/28 06:03:04;;;;;;;16.67;4.07;;;5.40;51.20;;;5.40;62.26;101365.66;4976001;28;20647;-68
2022/01/28 06:05:34;;;;;;;18.13;4.22;;;5.40;50.10;;;5.36;62.38;101365.13;4976409;28;20203;-71
2022/01/28 06:08:02;;;;;;;18.20;4.50;;;5.30;50.80;;;5.41;62.39;101368.19;4976157;28;20300;-69
2022/01/28 06:10:30;;;;;;;17.67;5.13;;;5.40;50.30;;;5.46;62.12;101384.66;4977096;28;20250;-70
2022/01/28 06:12:58;;;;;;;20.70;5.00;;;5.40;50.00;;;5.41;62.18;101389.66;4980502;28;20282;-72
2022/01/28 06:15:27;;;;;;;22.60;5.82;;;5.40;50.20;;;5.41;62.61;101403.09;4980495;28;20175;-71
2022/01/28 06:17:55;;;;;;;17.27;4.72;;;5.40;49.90;;;5.42;62.32;101401.25;4979581;28;20215;-69
2022/01/28 06:20:23;;;;;;;17.45;5.15;;;5.40;49.10;;;5.38;62.06;101398.00;4978449;28;20287;-70
2022/01/28 06:22:53;;;;;;;13.82;4.68;;;5.40;48.20;;;5.36;62.22;101410.75;4957846;28;20269;-71
2022/01/28 06:25:21;;;;;;;15.45;4.97;;;5.40;48.80;;;5.41;62.42;101416.50;4974760;28;20254;-69
2022/01/28 06:27:50;;;;;;;17.20;4.05;;;5.40;49.30;;;5.38;62.51;101429.38;4975000;28;20770;-71
2022/01/28 06:30:20;;;;;;;13.00;4.05;;;5.40;50.00;;;5.36;62.78;101431.38;4975304;28;20190;-69
2022/01/28 06:32:49;;;;;;;13.60;3.80;;;5.30;50.50;;;5.34;62.54;101452.16;4974496;28;20267;-70
2022/01/28 06:35:17;;;;;;;16.10;3.72;;;5.30;51.40;;;5.36;62.84;101434.91;4975995;28;20205;-70
2022/01/28 06:37:46;;;;;;;29.27;5.22;;;5.40;51.80;;;5.36;62.97;101442.97;4976710;28;20195;-69
2022/01/28 06:40:18;;;;;;;9.98;3.92;;;5.40;52.80;;;5.32;62.42;101451.50;4977626;28;20195;-71
2022/01/28 06:42:51;;;;;;;16.42;3.95;;;5.30;50.60;;;5.33;62.57;101458.53;4963434;28;20697;-70
2022/01/28 06:45:20;;;;;;;12.70;5.35;;;5.30;51.10;;;5.40;62.71;101468.50;4978583;28;20180;-71
2022/01/28 06:47:48;;;;;;;21.15;4.32;;;5.40;52.80;;;5.27;62.39;101461.84;4958583;28;20226;-70
2022/01/28 06:50:16;;;;;;;14.05;4.45;;;5.30;48.80;;;5.34;62.76;101484.38;4960193;28;20206;-71
2022/01/28 06:52:45;;;;;;;13.80;4.65;;;5.30;50.90;;;5.31;62.32;101480.16;4975506;28;20250;-70
2022/01/28 06:55:16;;;;;;;24.45;5.00;;;5.30;50.20;;;5.29;62.64;101490.19;4978920;28;20195;-70
2022/01/28 06:57:44;;;;;;;11.57;3.17;;;5.30;51.70;;;5.27;62.63;101497.56;4983407;28;20196;-72
2022/01/28 07:00:14;;;;;;;16.83;3.97;;;5.30;51.00;;;5.23;62.67;101512.25;4965794;28;20199;-71
2022/01/28 07:02:44;;;;;;;27.98;5.43;;;5.20;50.90;;;5.23;62.36;101521.16;4981044;28;20254;-72
2022/01/28 07:05:13;;;;;;;18.65;4.15;;;5.20;50.90;;;5.24;62.52;101513.97;4980192;28;20176;-71
2022/01/28 07:07:47;;;;;;;14.38;4.35;;;5.20;50.60;;;5.21;62.46;101533.06;4975264;28;20203;-72
2022/01/28 07:10:19;;;;;;;15.98;4.45;;;5.20;50.10;;;5.19;62.38;101518.94;4974757;28;20597;-69
2022/01/28 07:12:47;;;;;;;20.40;5.65;;;5.20;49.60;;;5.17;62.97;101521.78;4975023;28;20184;-72
2022/01/28 07:15:16;;;;;;;18.75;5.07;;;5.10;51.70;;;5.16;62.76;101524.63;4974765;28;20259;-72
2022/01/28 07:17:44;;;;;;;14.52;5.13;;;5.20;52.20;;;5.14;62.25;101531.97;4974339;28;20632;-72
2022/01/28 07:20:13;;;;;;;16.85;7.15;;;5.20;49.50;;;5.03;62.41;101550.97;4974713;28;20168;-71
2022/01/28 07:22:41;;;;;;;25.00;7.05;;;5.10;49.20;;;5.00;62.53;101545.91;4975646;28;20195;-71
2022/01/28 07:25:10;;;;;;;16.50;4.53;;;5.00;49.10;;;4.93;62.98;101558.22;4975161;28;20545;-72
2022/01/28 07:27:40;;;;;;;16.73;6.60;;;5.00;51.20;;;4.83;62.49;101560.97;4976884;28;20270;-70
2022/01/28 07:30:11;;;;;;;13.63;4.10;;;4.90;49.00;;;4.78;62.86;101564.09;4977969;28;20180;-71
2022/01/28 07:32:39;;;;;;;14.50;4.78;;;4.80;50.70;;;4.74;63.38;101570.72;4974363;28;20266;-71
2022/01/28 07:35:13;;;;;;;22.27;5.00;;;4.80;53.50;;;4.72;62.95;101566.50;4974789;28;20620;-70
2022/01/28 07:37:41;;;;;;;9.85;4.75;;;4.80;53.30;;;4.64;63.14;101582.50;4975128;28;20172;-69
2022/01/28 07:40:12;;;;;;;14.43;5.20;;;4.70;53.80;;;4.66;63.31;101597.44;4975369;28;20236;-72
2022/01/28 07:42:43;;;;;;;18.38;7.75;;;4.70;55.00;;;4.60;63.33;101603.38;4975012;28;20234;-72
2022/01/28 07:45:14;;;;;;;17.30;5.40;;;4.60;56.10;;;4.66;63.81;101610.84;4975777;28;20186;-69
2022/01/28 07:47:45;;;;;;;10.55;5.88;;;4.60;58.20;;;4.63;63.70;101612.97;4974844;28;20184;-71
2022/01/28 07:50:15;;;;;;;22.20;5.83;;;4.60;57.60;;;4.62;63.51;101625.53;4972586;28;20457;-72
2022/01/28 07:52:44;;;;;;;20.45;4.45;;;4.60;58.70;;;4.55;63.49;101632.44;4974788;28;20485;-71
2022/01/28 07:55:17;;;;;;;16.02;5.93;;;4.60;57.00;;;4.51;63.74;101628.38;4975844;28;20249;-70
2022/01/28 07:57:46;;;;;;;15.05;5.60;;;4.50;59.30;;;4.46;64.20;101627.97;4956208;28;20192;-72
2022/01/28 08:00:16;;;;;;;16.55;5.30;;;4.50;62.20;;;4.44;64.32;101635.31;4974592;28;20211;-70
2022/01/28 08:02:45;;;;;;;16.70;3.97;;;4.50;62.80;;;4.40;64.39;101652.69;4975804;28;20182;-70
2022/01/28 08:05:13;;;;;;;27.40;6.10;;;4.40;65.20;;;4.44;64.28;101650.56;4989607;28;20203;-71
2022/01/28 08:07:43;;;;;;;15.55;4.07;;;4.40;66.40;;;4.45;64.58;101657.63;4974859;28;20184;-71
2022/01/28 08:10:16;;;;;;;18.67;4.75;;;4.40;66.40;;;4.48;63.71;101660.84;4974838;28;20176;-70
2022/01/28 08:12:47;;;;;;;16.85;3.90;;;4.50;62.70;;;4.59;63.89;101671.41;4974507;28;20198;-71
2022/01/28 08:15:17;;;;;;;15.02;4.07;;;4.50;66.90;;;4.59;63.88;101687.50;4974853;28;20182;-69
2022/01/28 08:17:47;;;;;;;14.93;4.40;;;4.60;61.80;;;4.53;63.85;101680.03;4974717;28;20187;-70
2022/01/28 08:20:15;;;;;;;13.60;4.18;;;4.50;63.00;;;4.56;64.01;101687.75;4974708;28;20199;-70
2022/01/28 08:22:45;;;;;;;24.35;4.90;;;4.60;62.80;;;4.59;63.88;101690.19;4974350;28;20635;-70
2022/01/28 08:25:15;;;;;;;13.48;4.53;;;4.60;62.40;;;4.61;63.42;101696.22;4974075;28;20616;-70
2022/01/28 08:27:46;;;;;;;17.58;5.00;;;4.60;59.70;;;4.59;63.52;101697.38;4974398;28;20669;-70
2022/01/28 08:30:19;;;;;;;15.02;4.32;;;4.60;57.70;;;4.62;63.86;101687.19;4974419;28;20172;-71
2022/01/28 08:32:49;;;;;;;20.92;5.63;;;4.60;60.00;;;4.60;63.87;101705.25;4974106;28;20180;-72
2022/01/28 08:35:24;;;;;;;21.55;5.57;;;4.60;59.20;;;4.68;63.56;101712.59;4973990;28;20168;-71
2022/01/28 08:37:54;;;;;;;11.20;3.58;;;4.60;59.40;;;4.65;63.27;101713.69;4973868;28;20207;-70
2022/01/28 08:40:23;;;;;;;27.38;9.00;;;4.70;57.70;;;4.60;63.29;101726.69;4978584;28;20203;-70
2022/01/28 08:42:56;;;;;;;17.48;6.22;;;4.60;55.70;;;4.65;63.67;101729.78;4968819;28;20194;-72
2022/01/28 08:45:24;;;;;;;19.10;5.50;;;4.60;59.40;;;4.73;63.11;101742.50;4987783;28;20184;-70
2022/01/28 08:47:53;;;;;;;28.55;5.28;;;4.70;58.00;;;4.63;63.04;101726.44;4987941;28;20220;-71
2022/01/28 08:50:22;;;;;;;21.98;4.78;;;4.70;55.90;;;4.64;63.04;101727.28;4983036;28;20192;-71
2022/01/28 08:52:52;;;;;;;18.25;5.57;;;4.60;54.70;;;4.63;63.12;101747.88;4983084;28;20191;-71
2022/01/28 08:55:22;;;;;;;13.25;4.75;;;4.60;53.40;;;4.67;62.62;101749.28;4981994;28;20187;-71
2022/01/28 08:57:53;;;;;;;13.27;4.07;;;4.70;53.20;;;4.74;62.80;101776.38;4981269;28;20282;-70
2022/01/28 09:00:24;;;;;;;16.50;4.80;;;4.70;51.70;;;4.80;62.67;101771.25;4980061;28;20464;-71
2022/01/28 09:02:53;;;;;;;10.32;3.72;;;4.70;51.90;;;4.75;62.14;101784.25;4959165;28;20191;-73
2022/01/28 09:05:22;;;;;;;20.15;6.32;;;4.80;48.70;;;4.78;62.26;101770.56;4976963;28;20697;-70
2022/01/28 09:07:51;;;;;;;19.00;5.53;;;4.70;49.20;;;4.91;62.49;101756.00;4976385;28;20620;-71
2022/01/28 09:10:24;;;;;;;25.67;4.97;;;4.80;49.40;;;4.90;62.06;101781.13;4977740;28;20176;-71
2022/01/28 09:13:10;;;;;;;15.68;5.15;;;4.90;45.50;;;4.98;61.96;101776.75;4976249;28;20188;-70
2022/01/28 09:15:43;;;;;;;21.77;4.68;;;4.90;46.10;;;4.85;61.57;101794.13;4976072;28;20199;-71
2022/01/28 09:18:12;;;;;;;18.33;5.05;;;4.90;42.90;;;5.01;61.83;101784.50;4978385;28;20211;-71
2022/01/28 09:20:41;;;;;;;21.85;5.88;;;4.90;44.60;;;5.07;61.13;101783.94;4970293;28;20254;-71
2022/01/28 09:23:10;;;;;;;21.20;6.40;;;5.10;42.80;;;4.98;61.46;101795.53;4975229;28;20658;-70
2022/01/28 09:25:39;;;;;;;17.85;5.40;;;5.00;41.70;;;5.02;61.48;101794.25;4976207;28;20242;-71
2022/01/28 09:28:08;;;;;;;14.93;4.25;;;5.00;41.40;;;5.00;61.92;101808.78;4975754;28;20230;-71
2022/01/28 09:30:37;;;;;;;20.77;5.43;;;5.00;42.70;;;5.24;61.15;101795.72;4975841;28;20191;-70
2022/01/28 09:33:07;;;;;;;13.10;4.13;;;5.10;43.00;;;5.31;60.71;101801.38;4977426;28;20211;-70
2022/01/28 09:35:37;;;;;;;21.90;5.20;;;5.30;39.00;;;5.37;60.61;101812.38;4975620;28;20176;-70
2022/01/28 09:38:06;;;;;;;15.77;5.28;;;5.30;37.60;;;5.27;60.49;101816.94;4975420;28;20211;-70
2022/01/28 09:40:35;;;;;;;20.95;4.90;;;5.30;35.30;;;5.35;60.45;101816.19;4975462;28;20211;-71
2022/01/28 09:43:05;;;;;;;22.48;6.15;;;5.30;35.20;;;5.33;61.06;101815.47;4975481;28;20191;-70
2022/01/28 09:45:34;;;;;;;26.52;6.95;;;5.30;37.30;;;5.30;60.55;101835.41;4976263;28;20184;-71
2022/01/28 09:48:03;;;;;;;20.77;5.38;;;5.20;34.30;;;5.44;60.54;101839.47;4975891;28;20686;-70
2022/01/28 09:50:34;;;;;;;25.50;5.03;;;5.40;35.80;;;5.75;59.40;101862.41;4975673;28;20605;-70
2022/01/28 09:53:04;;;;;;;14.93;3.78;;;5.60;32.20;;;5.65;59.47;101859.75;4975615;28;20187;-70
2022/01/28 09:55:32;;;;;;;14.82;4.57;;;5.60;29.40;;;5.58;59.61;101869.38;4975663;28;20246;-71
2022/01/28 09:58:01;;;;;;;21.85;5.65;;;5.60;29.50;;;5.84;59.11;101879.47;4976025;28;20212;-70
2022/01/28 10:00:32;;;;;;;18.80;4.18;;;5.70;29.60;;;5.67;59.12;101879.25;4976039;28;20670;-72
2022/01/28 10:03:04;;;;;;;21.88;4.78;;;5.70;27.20;;;5.63;59.53;101888.59;4976289;28;20176;-71
2022/01/28 10:05:37;;;;;;;16.73;5.00;;;5.70;28.50;;;5.60;59.79;101888.03;4975465;28;20179;-72
2022/01/28 10:08:11;;;;;;;24.77;5.43;;;5.60;29.50;;;5.62;59.71;101903.00;4975456;28;20579;-70
2022/01/28 10:10:53;;;;;;;11.55;3.97;;;5.60;28.80;;;5.82;59.71;101895.72;4975726;28;20198;-72
2022/01/28 10:13:29;;;;;;;11.10;3.50;;;5.60;30.00;;;5.69;59.02;101914.03;4975716;28;20195;-69
2022/01/28 10:16:05;;;;;;;17.85;5.30;;;5.70;27.50;;;5.46;59.99;101934.16;4974852;28;20630;-69
2022/01/28 10:18:50;;;;;;;14.82;4.30;;;5.50;27.90;;;5.41;59.82;101925.69;4975279;28;20233;-69
2022/01/28 10:21:31;;;;;;;15.73;4.20;;;5.40;29.00;;;5.40;60.03;101919.47;4975458;28;20195;-71
2022/01/28 10:24:15;;;;;;;10.80;3.90;;;5.40;30.00;;;5.69;59.72;101924.75;4974517;28;20180;-71
2022/01/28 10:26:48;;;;;;;22.17;5.10;;;5.50;30.50;;;5.60;59.66;101915.75;4974464;28;20238;-71
2022/01/28 10:29:20;;;;;;;21.83;4.70;;;5.60;28.10;;;5.41;59.61;101923.84;4974511;28;20211;-70
2022/01/28 10:31:56;;;;;;;12.90;4.55;;;5.50;28.30;;;5.40;59.69;101930.19;4974525;28;20179;-69
2022/01/28 10:34:31;;;;;;;11.68;3.70;;;5.50;28.30;;;5.53;59.69;101930.72;4972501;28;20219;-71
2022/01/28 10:37:17;;;;;;;15.32;4.50;;;5.50;28.70;;;5.70;59.54;101926.47;4974259;28;20179;-71
2022/01/28 10:39:51;;;;;;;24.85;4.65;;;5.60;29.20;;;5.63;59.63;101926.19;4974637;28;20214;-71
2022/01/28 10:42:38;;;;;;;12.25;4.03;;;5.60;28.00;;;5.58;59.53;101924.91;4974701;28;20314;-70
2022/01/28 10:45:11;;;;;;;15.98;5.30;;;5.60;28.30;;;5.66;59.80;101908.94;4974473;28;20191;-72
2022/01/28 10:47:43;;;;;;;12.57;4.28;;;5.60;28.90;;;5.64;59.26;101929.72;4974942;28;20194;-70
2022/01/28 10:50:22;;;;;;;22.63;5.88;;;5.60;27.50;;;5.67;59.25;101940.16;4974064;28;20183;-71
2022/01/28 10:53:11;;;;;;;13.70;4.40;;;5.60;27.50;;;5.80;58.80;101947.94;4974182;28;20543;-71
2022/01/28 10:55:44;;;;;;;18.77;4.40;;;5.70;26.60;;;5.75;59.42;101937.63;4974473;28;20195;-71
2022/01/28 10:58:15;;;;;;;10.75;4.05;;;5.70;26.80;;;5.66;59.07;101931.25;4973925;28;20211;-71
2022/01/28 11:00:48;;;;;;;22.42;6.70;;;5.70;26.50;;;5.63;59.78;101936.06;4977620;28;20259;-71
2022/01/28 11:03:21;;;;;;;17.85;4.20;;;5.70;27.50;;;5.66;59.29;101936.63;4975037;28;20529;-71
2022/01/28 11:05:51;;;;;;;9.65;2.90;;;5.70;27.80;;;5.64;59.62;101933.25;4974068;28;20631;-71
2022/01/28 11:08:21;;;;;;;15.50;4.78;;;5.60;28.00;;;5.62;59.85;101945.13;4971756;28;20223;-71
2022/01/28 11:10:49;;;;;;;14.38;4.15;;;5.60;28.90;;;5.97;59.04;101939.13;4973998;28;20176;-71
2022/01/28 11:13:19;;;;;;;19.98;5.68;;;5.80;28.40;;;6.03;59.51;101933.16;4996897;23;20320;-71
2022/01/28 11:15:47;;;;;;;17.33;3.88;;;5.90;27.80;;;6.09;58.88;101959.47;5012820;28;20268;-73
2022/01/28 11:18:18;;;;;;;19.85;4.00;;;6.00;26.10;;;6.18;58.39;101950.50;5014260;28;20265;-70
2022/01/28 11:20:53;;;;;;;10.27;3.33;;;6.10;25.40;;;6.20;58.41;101951.19;5013719;28;20281;-71
2022/01/28 11:23:34;;;;;;;10.27;2.72;;;6.20;23.80;;;6.34;58.02;101966.81;5013579;28;20184;-70
2022/01/28 11:26:19;;;;;;;12.10;3.28;;;6.30;23.30;;;6.22;58.25;101970.72;5013852;28;20276;-69
2022/01/28 11:28:51;;;;;;;9.85;4.57;;;6.20;23.00;;;6.26;58.58;101974.78;4956666;28;20223;-71
2022/01/28 11:31:44;;;;;;;11.27;4.15;;;6.20;24.00;;;6.40;57.94;101994.97;4953705;28;20602;-70
2022/01/28 11:34:19;;;;;;;21.73;4.85;;;6.30;23.40;;;6.25;58.41;101999.97;4973106;28;20192;-70
2022/01/28 11:36:47;;;;;;;18.08;4.20;;;6.20;23.70;;;6.17;58.26;101994.50;4966963;28;20557;-69
2022/01/28 11:39:41;;;;;;;14.32;3.58;;;6.20;23.30;;;6.11;58.60;102003.13;4954354;28;20550;-70
2022/01/28 11:42:13;;;;;;;14.10;3.05;;;6.10;23.90;;;6.20;58.86;102007.63;4951940;28;20222;-69
2022/01/28 11:44:52;;;;;;;11.00;4.18;;;6.10;24.10;;;6.23;58.30;102010.06;4956095;28;20188;-71
2022/01/28 11:47:25;;;;;;;9.57;3.83;;;6.20;24.40;;;6.37;58.90;102030.22;4973057;28;20285;-70
2022/01/28 11:50:06;;;;;;;25.77;4.50;;;6.20;25.10;;;6.37;58.38;102022.16;4972466;28;20187;-70
2022/01/28 11:52:40;;;;;;;11.55;3.80;;;6.30;24.20;;;6.37;58.41;102014.94;4971319;28;20224;-70
2022/01/28 11:55:32;;;;;;;22.02;4.45;;;6.30;23.80;;;6.25;58.63;102021.47;4971376;28;20199;-71
2022/01/28 11:58:04;;;;;;;17.15;4.22;;;6.30;24.80;;;6.37;58.82;102012.25;4965096;28;20310;-71
2022/01/28 12:00:37;;;;;;;14.48;3.85;;;6.30;24.20;;;6.30;58.30;102003.06;4972276;28;20219;-70
2022/01/28 12:03:17;;;;;;;15.35;5.82;;;6.30;23.20;;;6.20;58.54;102010.31;4960503;28;20192;-70
2022/01/28 12:05:56;;;;;;;11.13;4.03;;;6.20;23.60;;;6.34;58.64;102012.53;4953077;28;20728;-72
2022/01/28 12:08:29;;;;;;;8.82;3.50;;;6.30;24.40;;;6.27;59.00;102014.13;4952368;29;20215;-71
2022/01/28 12:11:02;;;;;;;10.30;4.00;;;6.20;24.40;;;6.24;58.81;102022.50;4953142;28;20188;-71
2022/01/28 12:13:34;;;;;;;14.95;4.13;;;6.20;24.70;;;6.48;58.44;102024.66;4953125;29;20196;-70
2022/01/28 12:16:11;;;;;;;14.02;3.78;;;6.40;24.10;;;6.67;57.97;102027.28;4952166;28;20200;-70
2022/01/28 12:18:54;;;;;;;18.38;3.90;;;6.50;23.50;;;6.76;57.80;102039.81;4953357;28;20275;-71
2022/01/28 12:21:26;;;;;;;13.98;4.00;;;6.70;22.60;;;6.83;57.39;102029.28;4956277;29;20200;-69
2022/01/28 12:24:16;;;;;;;11.05;3.60;;;6.70;21.60;;;6.76;57.45;102044.34;4956558;28;20684;-71
2022/01/28 12:27:02;;;;;;;21.83;4.63;;;6.70;21.40;;;6.95;56.82;102028.09;4955094;29;20220;-70
2022/01/28 12:29:32;;;;;;;13.10;3.38;;;6.80;21.00;;;6.59;57.83;102032.53;4937698;29;20199;-68
2022/01/28 12:32:05;;;;;;;15.68;3.78;;;6.70;20.80;;;6.58;58.30;102035.38;4937431;29;20211;-71
2022/01/28 12:34:34;;;;;;;7.45;3.13;;;6.60;21.60;;;6.62;57.88;102031.41;4952519;29;20189;-71